Aeroporto :
LOGIN :

Iscrizione | Disclaimer

   EN    FR    IT 

 










Sommario :    VFR   VFR Marginale   IFR   IFR Intensivo   IFR Molto Intensivo
Visibilità : 
Base nubi : 
>= 8 km
>= 3000ft
5 / 8 km
1000 / 3000 ft
1500m / 5 km
500 / 1000 ft
800 / 1500m
200 / 500 ft
< 800m
< 200 ft
Simboli :   Temporali  Nebbia  Neve Forte  Precipitazioni Forti  Vento > 20 kt
SIGMETs :   Varie  Temporali  Ghiacco  Turbolenza  Onda orograficha  Ceneri Vulcaniche






- Altitudine del aeroporto : 85 ft
- Codice IATA : SFA


DTTX - Thyna/El Maou - Sfax

ULTIMO METAR :
  • 281500Z 10010KT 070V130 9999 FEW020 SCT033 29/19 Q1017

METARs OBSOLETI :
  • 281400Z 10010KT 060V130 9999 FEW020 SCT033 29/20 Q1017
  • 281300Z 12010KT 9999 FEW020 SCT033 30/20 Q1017

TAF TAF DTTX
Valido dal 28 a 12 ore il 29 a 12 ore UTC


281100Z 2812/2912 03010KT 8000 FEW020 SCT033
BECMG 2813/2815 10010KT
BECMG 2822/2824 02010KT
BECMG 2904/2906 VRB04KT
BECMG 2907/2909 01010KT



MetMap, La meteo Aeronautica in un colpo d'occhio ! - Copyright ORBIFLY Dicembre 2007 - Disclaimer

ORBIFLY MET'MAP TEAM :

Programmazione e sviluppo : Alexandra Zaïnal
Concezione : Baudouin d'Aumeries
Aiuto per la programmazione : Marc-Olivier Méhu
Supporto tecnico e logistico : Manuel Goepfert
Aiuto per la traduzione : Arnaldo La Scala

Contatto : metmap@orbifly.com




FONTI E CREDITI :

   NOAA